createdAt,value
2019-02-20T00:00:15.550Z,1011.76
2019-02-20T00:01:15.534Z,1011.68
2019-02-20T00:02:15.527Z,1011.70
2019-02-20T00:03:15.515Z,1011.74
2019-02-20T00:04:15.503Z,1011.76
2019-02-20T00:05:15.529Z,1011.75
2019-02-20T00:06:15.480Z,1011.69
2019-02-20T00:07:15.470Z,1011.75
2019-02-20T00:08:15.460Z,1011.79
2019-02-20T00:09:15.450Z,1011.75
2019-02-20T00:10:15.437Z,1011.76
2019-02-20T00:11:15.467Z,1011.77
2019-02-20T00:12:15.418Z,1011.82
2019-02-20T00:13:15.405Z,1011.76
2019-02-20T00:14:15.407Z,1011.85
2019-02-20T00:15:15.382Z,1011.80
2019-02-20T00:16:15.395Z,1011.85
2019-02-20T00:17:15.359Z,1011.86
2019-02-20T00:18:15.358Z,1011.83
2019-02-20T00:19:15.338Z,1011.83
2019-02-20T00:20:15.327Z,1011.87
2019-02-20T00:21:15.343Z,1011.85
2019-02-20T00:22:15.304Z,1011.87
2019-02-20T00:23:15.294Z,1011.91
2019-02-20T00:24:15.281Z,1011.88
2019-02-20T00:25:15.273Z,1011.89
2019-02-20T00:26:15.286Z,1011.91
2019-02-20T00:27:15.251Z,1011.92
2019-02-20T00:28:15.240Z,1011.96
2019-02-20T00:29:15.227Z,1011.93
2019-02-20T00:30:15.223Z,1011.94
2019-02-20T00:31:15.234Z,1011.95
2019-02-20T00:32:15.203Z,1011.92
2019-02-20T00:33:15.184Z,1011.89
2019-02-20T00:34:15.183Z,1011.93
2019-02-20T00:35:15.164Z,1011.92
2019-02-20T00:36:15.180Z,1011.91
2019-02-20T00:37:15.144Z,1011.90
2019-02-20T00:38:15.133Z,1011.93
2019-02-20T00:39:15.119Z,1011.92
2019-02-20T00:40:15.132Z,1011.95
2019-02-20T00:41:15.096Z,1012.02
2019-02-20T00:42:15.089Z,1011.93
2019-02-20T00:43:15.080Z,1011.91
2019-02-20T00:44:15.063Z,1011.92
2019-02-20T00:45:15.079Z,1011.93
2019-02-20T00:46:15.044Z,1011.95
2019-02-20T00:47:15.032Z,1011.93
2019-02-20T00:48:15.023Z,1011.93
2019-02-20T00:49:15.009Z,1011.92
2019-02-20T00:50:15.026Z,1011.93
2019-02-20T00:51:14.987Z,1011.90
2019-02-20T00:52:14.977Z,1011.93
2019-02-20T00:53:14.966Z,1011.95
2019-02-20T00:54:14.955Z,1011.92
2019-02-20T00:55:14.975Z,1011.93
2019-02-20T00:56:14.933Z,1011.95
2019-02-20T00:57:14.924Z,1011.98
2019-02-20T00:58:14.910Z,1012.01
2019-02-20T00:59:16.889Z,1012.00
2019-02-20T01:00:14.914Z,1011.99
2019-02-20T01:01:14.879Z,1012.03
2019-02-20T01:02:14.866Z,1012.06
2019-02-20T01:03:14.863Z,1012.00
2019-02-20T01:04:14.846Z,1011.98
2019-02-20T01:05:14.885Z,1012.00
2019-02-20T01:06:14.833Z,1012.00
2019-02-20T01:07:14.810Z,1011.96
2019-02-20T01:08:14.803Z,1012.00
2019-02-20T01:09:14.792Z,1011.99
2019-02-20T01:10:14.804Z,1011.97
2019-02-20T01:11:14.767Z,1011.97
2019-02-20T01:12:14.758Z,1011.95
2019-02-20T01:13:14.747Z,1011.98
2019-02-20T01:14:14.736Z,1011.99
2019-02-20T01:15:14.748Z,1012.04
2019-02-20T01:16:14.714Z,1012.02
2019-02-20T01:17:14.707Z,1012.06
2019-02-20T01:18:14.694Z,1012.01
2019-02-20T01:19:14.680Z,1012.08
2019-02-20T01:20:14.704Z,1012.05
2019-02-20T01:21:14.658Z,1012.04
2019-02-20T01:22:14.649Z,1011.99
2019-02-20T01:23:14.636Z,1012.01
2019-02-20T01:24:14.625Z,1011.96
2019-02-20T01:25:14.643Z,1011.99
2019-02-20T01:26:14.604Z,1012.01
2019-02-20T01:27:14.594Z,1012.05
2019-02-20T01:28:14.585Z,1012.03
2019-02-20T01:29:14.570Z,1012.07
2019-02-20T01:30:14.584Z,1012.08
2019-02-20T01:31:14.548Z,1012.11
2019-02-20T01:32:14.539Z,1012.08
2019-02-20T01:33:16.510Z,1012.05
2019-02-20T01:34:14.518Z,1012.07
2019-02-20T01:35:14.541Z,1012.11
2019-02-20T01:36:14.494Z,1012.04
2019-02-20T01:37:14.483Z,1012.10
2019-02-20T01:38:14.473Z,1012.03
2019-02-20T01:39:14.461Z,1012.01
2019-02-20T01:40:14.479Z,1011.98
2019-02-20T01:41:14.442Z,1012.02
2019-02-20T01:42:14.428Z,1011.93
2019-02-20T01:43:14.417Z,1011.98
2019-02-20T01:44:14.406Z,1011.97
2019-02-20T01:45:14.425Z,1011.89
2019-02-20T01:46:14.385Z,1011.86
2019-02-20T01:47:14.376Z,1011.87
2019-02-20T01:48:14.362Z,1011.85
2019-02-20T01:49:14.351Z,1011.83
2019-02-20T01:50:14.365Z,1011.88
2019-02-20T01:51:14.329Z,1011.87
2019-02-20T01:52:14.318Z,1011.78
2019-02-20T01:53:14.306Z,1011.80
2019-02-20T01:54:14.296Z,1011.78
2019-02-20T01:55:14.315Z,1011.83
2019-02-20T01:56:14.274Z,1011.86
2019-02-20T01:57:14.263Z,1011.83
2019-02-20T01:58:14.253Z,1011.92
2019-02-20T01:59:14.243Z,1011.85
2019-02-20T02:00:14.260Z,1011.96
2019-02-20T02:01:14.223Z,1011.88
2019-02-20T02:02:14.211Z,1011.89
2019-02-20T02:03:14.198Z,1011.88
2019-02-20T02:04:14.192Z,1011.95
2019-02-20T02:05:15.838Z,1011.96
2019-02-20T02:06:14.167Z,1011.97
2019-02-20T02:07:14.154Z,1012.01
2019-02-20T02:08:14.145Z,1011.98
2019-02-20T02:09:14.133Z,1012.01
2019-02-20T02:10:14.147Z,1012.02
2019-02-20T02:11:14.112Z,1011.96
2019-02-20T02:12:14.103Z,1011.96
2019-02-20T02:13:14.088Z,1012.00
2019-02-20T02:14:14.077Z,1011.93
2019-02-20T02:15:20.421Z,1011.95
2019-02-20T02:16:15.057Z,1011.92
2019-02-20T02:17:14.051Z,1011.93
2019-02-20T02:18:14.034Z,1011.95
2019-02-20T02:19:14.023Z,1011.97
2019-02-20T02:20:14.038Z,1011.95
2019-02-20T02:21:14.002Z,1011.97
2019-02-20T02:22:13.990Z,1012.04
2019-02-20T02:23:19.818Z,1011.99
2019-02-20T02:24:14.971Z,1012.00
2019-02-20T02:25:13.994Z,1011.97
2019-02-20T02:26:13.947Z,1011.95
2019-02-20T02:27:13.939Z,1011.94
2019-02-20T02:28:13.931Z,1011.88
2019-02-20T02:29:13.920Z,1011.92
2019-02-20T02:30:13.903Z,1011.89
2019-02-20T02:31:13.965Z,1011.96
2019-02-20T02:32:13.886Z,1011.93
2019-02-20T02:33:13.872Z,1011.92
2019-02-20T02:34:13.857Z,1011.95
2019-02-20T02:35:13.884Z,1011.96
2019-02-20T02:36:13.838Z,1011.95
2019-02-20T02:37:13.828Z,1011.93
2019-02-20T02:38:13.818Z,1011.92
2019-02-20T02:39:13.804Z,1011.99
2019-02-20T02:40:13.795Z,1011.99
2019-02-20T02:41:13.817Z,1011.96
2019-02-20T02:42:13.792Z,1011.95
2019-02-20T02:43:13.760Z,1012.00
2019-02-20T02:44:13.750Z,1011.98
2019-02-20T02:45:13.740Z,1012.02
2019-02-20T02:46:13.767Z,1012.00
2019-02-20T02:47:13.717Z,1011.99
2019-02-20T02:48:13.704Z,1012.05
2019-02-20T02:49:13.718Z,1012.02
2019-02-20T02:50:13.685Z,1012.03
2019-02-20T02:51:13.673Z,1012.08
2019-02-20T02:52:13.700Z,1012.02
2019-02-20T02:53:13.654Z,1012.04
2019-02-20T02:54:13.640Z,1012.03
2019-02-20T02:55:13.629Z,1012.05
2019-02-20T02:56:13.622Z,1012.09
2019-02-20T02:57:13.608Z,1012.09
2019-02-20T02:58:13.634Z,1012.07
2019-02-20T02:59:13.584Z,1012.04
2019-02-20T03:00:13.576Z,1012.06
2019-02-20T03:01:13.565Z,1012.07
2019-02-20T03:02:13.555Z,1012.05
2019-02-20T03:03:13.542Z,1012.12
2019-02-20T03:04:13.585Z,1012.03
2019-02-20T03:05:13.518Z,1012.04
2019-02-20T03:06:13.507Z,1012.08
2019-02-20T03:07:13.498Z,1012.03
2019-02-20T03:08:13.486Z,1012.06
2019-02-20T03:09:13.477Z,1011.98
2019-02-20T03:10:13.564Z,1012.08
2019-02-20T03:11:13.454Z,1012.07
2019-02-20T03:12:13.447Z,1012.04
2019-02-20T03:13:13.432Z,1012.03
2019-02-20T03:14:13.421Z,1011.99
2019-02-20T03:15:13.436Z,1012.01
2019-02-20T03:16:13.399Z,1012.05
2019-02-20T03:17:13.391Z,1012.05
2019-02-20T03:18:13.382Z,1012.04
2019-02-20T03:19:13.367Z,1012.09
2019-02-20T03:20:13.381Z,1012.08
2019-02-20T03:21:13.346Z,1012.10
2019-02-20T03:22:13.335Z,1012.12
2019-02-20T03:23:13.322Z,1012.12
2019-02-20T03:24:13.316Z,1012.15
2019-02-20T03:25:13.337Z,1012.11
2019-02-20T03:26:13.293Z,1012.13
2019-02-20T03:27:13.276Z,1012.13
2019-02-20T03:28:13.267Z,1012.18
2019-02-20T03:29:13.256Z,1012.14
2019-02-20T03:30:13.251Z,1012.16
2019-02-20T03:31:13.456Z,1012.20
2019-02-20T03:32:13.229Z,1012.21
2019-02-20T03:33:13.231Z,1012.18
2019-02-20T03:34:13.201Z,1012.21
2019-02-20T03:35:13.218Z,1012.25
2019-02-20T03:36:13.180Z,1012.20
2019-02-20T03:37:13.219Z,1012.22
2019-02-20T03:38:13.156Z,1012.26
2019-02-20T03:39:13.156Z,1012.25
2019-02-20T03:40:13.161Z,1012.23
2019-02-20T03:41:13.126Z,1012.24
2019-02-20T03:42:13.114Z,1012.31
2019-02-20T03:43:13.109Z,1012.36
2019-02-20T03:44:13.091Z,1012.38
2019-02-20T03:45:13.105Z,1012.40
2019-02-20T03:46:13.072Z,1012.35
2019-02-20T03:47:13.065Z,1012.39
2019-02-20T03:48:13.051Z,1012.37
2019-02-20T03:49:13.038Z,1012.37
2019-02-20T03:50:13.060Z,1012.36
2019-02-20T03:51:13.018Z,1012.34
2019-02-20T03:52:13.005Z,1012.36
2019-02-20T03:53:12.997Z,1012.33
2019-02-20T03:54:12.984Z,1012.36
2019-02-20T03:55:13.010Z,1012.32
2019-02-20T03:56:12.964Z,1012.33
2019-02-20T03:57:12.954Z,1012.37
2019-02-20T03:58:12.942Z,1012.36
2019-02-20T03:59:12.930Z,1012.37
2019-02-20T04:00:12.958Z,1012.38
2019-02-20T04:01:12.926Z,1012.38
2019-02-20T04:02:12.901Z,1012.37
2019-02-20T04:03:12.887Z,1012.37
2019-02-20T04:04:12.883Z,1012.38
2019-02-20T04:05:12.865Z,1012.37
2019-02-20T04:06:12.897Z,1012.36
2019-02-20T04:07:12.843Z,1012.38
2019-02-20T04:08:12.833Z,1012.40
2019-02-20T04:09:12.823Z,1012.36
2019-02-20T04:10:12.813Z,1012.34
2019-02-20T04:11:12.802Z,1012.38
2019-02-20T04:12:12.832Z,1012.41
2019-02-20T04:13:12.778Z,1012.38
2019-02-20T04:14:12.776Z,1012.40
2019-02-20T04:15:12.759Z,1012.37
2019-02-20T04:16:12.749Z,1012.41
2019-02-20T04:17:12.738Z,1012.45
2019-02-20T04:18:12.762Z,1012.43
2019-02-20T04:19:12.716Z,1012.46
2019-02-20T04:20:12.707Z,1012.42
2019-02-20T04:21:12.696Z,1012.45
2019-02-20T04:22:12.684Z,1012.43
2019-02-20T04:23:12.693Z,1012.43
2019-02-20T04:24:12.703Z,1012.43
2019-02-20T04:25:12.653Z,1012.49
2019-02-20T04:26:12.644Z,1012.48
2019-02-20T04:27:12.630Z,1012.52
2019-02-20T04:28:12.618Z,1012.55
2019-02-20T04:29:12.609Z,1012.56
2019-02-20T04:30:12.634Z,1012.54
2019-02-20T04:31:12.587Z,1012.52
2019-02-20T04:32:12.580Z,1012.49
2019-02-20T04:33:12.565Z,1012.49
2019-02-20T04:34:12.559Z,1012.47
2019-02-20T04:35:12.543Z,1012.52
2019-02-20T04:36:12.571Z,1012.49
2019-02-20T04:37:12.523Z,1012.47
2019-02-20T04:38:12.508Z,1012.51
2019-02-20T04:39:12.511Z,1012.50
2019-02-20T04:40:12.489Z,1012.49
2019-02-20T04:41:12.487Z,1012.49
2019-02-20T04:42:12.513Z,1012.48
2019-02-20T04:43:12.454Z,1012.52
2019-02-20T04:44:12.443Z,1012.51
2019-02-20T04:45:12.438Z,1012.53
2019-02-20T04:46:12.420Z,1012.58
2019-02-20T04:47:12.412Z,1012.55
2019-02-20T04:48:12.436Z,1012.52
2019-02-20T04:49:12.393Z,1012.56
2019-02-20T04:50:12.384Z,1012.57
2019-02-20T04:51:12.371Z,1012.59
2019-02-20T04:52:12.358Z,1012.59
2019-02-20T04:53:12.345Z,1012.59
2019-02-20T04:54:13.684Z,1012.58
2019-02-20T04:55:12.325Z,1012.58
2019-02-20T04:56:12.314Z,1012.63
2019-02-20T04:57:12.304Z,1012.64
2019-02-20T04:58:12.293Z,1012.61
2019-02-20T04:59:12.282Z,1012.61
2019-02-20T05:00:12.308Z,1012.62
2019-02-20T05:01:12.262Z,1012.57
2019-02-20T05:02:12.249Z,1012.54
2019-02-20T05:03:12.241Z,1012.55
2019-02-20T05:04:12.227Z,1012.55
2019-02-20T05:05:12.218Z,1012.51
2019-02-20T05:06:12.243Z,1012.56
2019-02-20T05:07:12.196Z,1012.57
2019-02-20T05:08:12.185Z,1012.55
2019-02-20T05:09:12.175Z,1012.53
2019-02-20T05:10:12.166Z,1012.55
2019-02-20T05:11:12.155Z,1012.57
2019-02-20T05:12:12.180Z,1012.66
2019-02-20T05:13:12.145Z,1012.58
2019-02-20T05:14:12.120Z,1012.55
2019-02-20T05:15:12.110Z,1012.66
2019-02-20T05:16:12.106Z,1012.62
2019-02-20T05:17:12.086Z,1012.66
2019-02-20T05:18:12.113Z,1012.63
2019-02-20T05:19:12.066Z,1012.66
2019-02-20T05:20:12.055Z,1012.66
2019-02-20T05:21:12.043Z,1012.62
2019-02-20T05:22:12.034Z,1012.65
2019-02-20T05:23:12.023Z,1012.54
2019-02-20T05:24:12.053Z,1012.56
2019-02-20T05:25:12.003Z,1012.60
2019-02-20T05:26:11.989Z,1012.51
2019-02-20T05:27:11.991Z,1012.58
2019-02-20T05:28:11.969Z,1012.52
2019-02-20T05:29:11.961Z,1012.54
2019-02-20T05:30:11.994Z,1012.52
2019-02-20T05:31:11.941Z,1012.59
2019-02-20T05:32:11.923Z,1012.68
2019-02-20T05:33:11.917Z,1012.64
2019-02-20T05:34:11.903Z,1012.64
2019-02-20T05:35:11.890Z,1012.66
2019-02-20T05:36:11.918Z,1012.66
2019-02-20T05:37:11.871Z,1012.63
2019-02-20T05:38:11.863Z,1012.62
2019-02-20T05:39:11.850Z,1012.58
2019-02-20T05:40:11.837Z,1012.62
2019-02-20T05:41:11.828Z,1012.61
2019-02-20T05:42:11.919Z,1012.63
2019-02-20T05:43:11.811Z,1012.66
2019-02-20T05:44:11.795Z,1012.69
2019-02-20T05:45:11.784Z,1012.70
2019-02-20T05:46:11.770Z,1012.74
2019-02-20T05:47:11.761Z,1012.78
2019-02-20T05:48:11.789Z,1012.78
2019-02-20T05:49:11.742Z,1012.82
2019-02-20T05:50:11.728Z,1012.85
2019-02-20T05:51:11.722Z,1012.86
2019-02-20T05:52:11.706Z,1012.83
2019-02-20T05:53:11.696Z,1012.88
2019-02-20T05:54:11.721Z,1012.90
2019-02-20T05:55:11.678Z,1012.94
2019-02-20T05:56:11.662Z,1012.91
2019-02-20T05:57:11.653Z,1012.90
2019-02-20T05:58:11.683Z,1012.93
2019-02-20T05:59:11.631Z,1012.93
2019-02-20T06:00:11.656Z,1012.96
2019-02-20T06:01:11.611Z,1012.94
2019-02-20T06:02:11.599Z,1012.96
2019-02-20T06:03:11.589Z,1012.94
2019-02-20T06:04:11.580Z,1012.94
2019-02-20T06:05:11.575Z,1012.90
2019-02-20T06:06:11.595Z,1012.92
2019-02-20T06:07:11.551Z,1012.93
2019-02-20T06:08:11.537Z,1012.91
2019-02-20T06:09:11.522Z,1012.94
2019-02-20T06:10:11.511Z,1012.94
2019-02-20T06:11:14.743Z,1012.92
2019-02-20T06:12:11.528Z,1012.92
2019-02-20T06:13:11.479Z,1012.97
2019-02-20T06:14:11.471Z,1012.94
2019-02-20T06:15:11.460Z,1012.95
2019-02-20T06:16:11.450Z,1012.97
2019-02-20T06:17:11.441Z,1012.95
2019-02-20T06:18:11.465Z,1012.94
2019-02-20T06:19:11.417Z,1012.97
2019-02-20T06:20:11.425Z,1012.94
2019-02-20T06:21:11.393Z,1012.97
2019-02-20T06:22:11.384Z,1012.96
2019-02-20T06:23:11.374Z,1013.03
2019-02-20T06:24:11.402Z,1013.07
2019-02-20T06:25:11.350Z,1013.08
2019-02-20T06:26:11.338Z,1013.08
2019-02-20T06:27:11.329Z,1013.07
2019-02-20T06:28:11.318Z,1013.12
2019-02-20T06:29:11.308Z,1013.09
2019-02-20T06:30:11.331Z,1013.14
2019-02-20T06:31:11.285Z,1013.18
2019-02-20T06:32:11.274Z,1013.18
2019-02-20T06:33:11.266Z,1013.21
2019-02-20T06:34:11.256Z,1013.19
2019-02-20T06:35:11.241Z,1013.20
2019-02-20T06:36:11.269Z,1013.20
2019-02-20T06:37:11.221Z,1013.21
2019-02-20T06:38:11.663Z,1013.21
2019-02-20T06:39:11.201Z,1013.21
2019-02-20T06:40:11.188Z,1013.22
2019-02-20T06:41:11.178Z,1013.21
2019-02-20T06:42:11.212Z,1013.22
2019-02-20T06:43:11.157Z,1013.24
2019-02-20T06:44:11.142Z,1013.19
2019-02-20T06:45:11.133Z,1013.24
2019-02-20T06:46:11.123Z,1013.25
2019-02-20T06:47:11.111Z,1013.29
2019-02-20T06:48:11.138Z,1013.28
2019-02-20T06:49:11.090Z,1013.28
2019-02-20T06:50:11.079Z,1013.29
2019-02-20T06:51:11.073Z,1013.31
2019-02-20T06:52:11.056Z,1013.34
2019-02-20T06:53:11.050Z,1013.39
2019-02-20T06:54:11.094Z,1013.32
2019-02-20T06:55:11.028Z,1013.33
2019-02-20T06:56:11.016Z,1013.39
2019-02-20T06:57:11.003Z,1013.35
2019-02-20T06:58:10.993Z,1013.39
2019-02-20T06:59:10.982Z,1013.35
2019-02-20T07:00:11.008Z,1013.30
2019-02-20T07:01:10.959Z,1013.33
2019-02-20T07:02:10.948Z,1013.39
2019-02-20T07:03:10.941Z,1013.35
2019-02-20T07:04:10.927Z,1013.38
2019-02-20T07:05:10.918Z,1013.47
2019-02-20T07:06:10.943Z,1013.49
2019-02-20T07:07:10.905Z,1013.42
2019-02-20T07:08:10.886Z,1013.47
2019-02-20T07:09:10.880Z,1013.47
2019-02-20T07:10:10.866Z,1013.45
2019-02-20T07:11:10.854Z,1013.43
2019-02-20T07:12:10.879Z,1013.42
2019-02-20T07:13:10.833Z,1013.44
2019-02-20T07:14:10.823Z,1013.45
2019-02-20T07:15:10.811Z,1013.42
2019-02-20T07:16:10.803Z,1013.47
2019-02-20T07:17:10.791Z,1013.42
2019-02-20T07:18:10.814Z,1013.47
2019-02-20T07:19:10.773Z,1013.54
2019-02-20T07:20:10.759Z,1013.54
2019-02-20T07:21:10.750Z,1013.61
2019-02-20T07:22:10.737Z,1013.70
2019-02-20T07:23:10.727Z,1013.74
2019-02-20T07:24:10.751Z,1013.77
2019-02-20T07:25:10.707Z,1013.81
2019-02-20T07:26:10.695Z,1013.81
2019-02-20T07:27:10.689Z,1013.81
2019-02-20T07:28:10.678Z,1013.84
2019-02-20T07:29:10.664Z,1013.84
2019-02-20T07:30:10.696Z,1013.87
2019-02-20T07:31:10.644Z,1013.88
2019-02-20T07:32:10.632Z,1013.91
2019-02-20T07:33:10.625Z,1013.89
2019-02-20T07:34:10.613Z,1013.95
2019-02-20T07:35:10.653Z,1013.92
2019-02-20T07:36:10.632Z,1013.95
2019-02-20T07:37:10.583Z,1013.95
2019-02-20T07:38:10.570Z,1013.97
2019-02-20T07:39:10.559Z,1013.98
2019-02-20T07:40:10.549Z,1013.96
2019-02-20T07:41:10.543Z,1014.02
2019-02-20T07:42:10.564Z,1013.98
2019-02-20T07:43:10.518Z,1013.98
2019-02-20T07:44:10.507Z,1013.99
2019-02-20T07:45:10.504Z,1013.98
2019-02-20T07:46:10.485Z,1014.01
2019-02-20T07:47:10.479Z,1014.05
2019-02-20T07:48:10.501Z,1014.00
2019-02-20T07:49:10.455Z,1014.00
2019-02-20T07:50:10.444Z,1014.08
2019-02-20T07:51:10.440Z,1014.09
2019-02-20T07:52:10.424Z,1014.08
2019-02-20T07:53:10.412Z,1014.09
2019-02-20T07:54:10.437Z,1014.12
2019-02-20T07:55:13.279Z,1014.13
2019-02-20T07:56:10.378Z,1014.19
2019-02-20T07:57:10.370Z,1014.13
2019-02-20T07:58:10.363Z,1014.17
2019-02-20T07:59:10.350Z,1014.21
2019-02-20T08:00:10.377Z,1014.24
2019-02-20T08:01:10.350Z,1014.27
2019-02-20T08:02:10.321Z,1014.26
2019-02-20T08:03:10.356Z,1014.26
2019-02-20T08:04:10.299Z,1014.26
2019-02-20T08:05:10.283Z,1014.26
2019-02-20T08:06:10.311Z,1014.21
2019-02-20T08:07:10.263Z,1014.29
2019-02-20T08:08:10.252Z,1014.29
2019-02-20T08:09:10.243Z,1014.26
2019-02-20T08:10:10.231Z,1014.29
2019-02-20T08:11:10.241Z,1014.24
2019-02-20T08:12:10.247Z,1014.26
2019-02-20T08:13:10.199Z,1014.20
2019-02-20T08:14:10.190Z,1014.28
2019-02-20T08:15:10.181Z,1014.26
2019-02-20T08:16:10.170Z,1014.32
2019-02-20T08:17:10.158Z,1014.29
2019-02-20T08:18:10.186Z,1014.27
2019-02-20T08:19:10.137Z,1014.34
2019-02-20T08:20:10.125Z,1014.36
2019-02-20T08:21:10.115Z,1014.35
2019-02-20T08:22:10.120Z,1014.35
2019-02-20T08:23:10.099Z,1014.34
2019-02-20T08:24:10.118Z,1014.35
2019-02-20T08:25:10.076Z,1014.35
2019-02-20T08:26:10.061Z,1014.37
2019-02-20T08:27:10.065Z,1014.40
2019-02-20T08:28:10.039Z,1014.33
2019-02-20T08:29:10.039Z,1014.32
2019-02-20T08:30:10.052Z,1014.37
2019-02-20T08:31:10.007Z,1014.36
2019-02-20T08:32:09.997Z,1014.42
2019-02-20T08:33:09.986Z,1014.38
2019-02-20T08:34:09.977Z,1014.45
2019-02-20T08:35:10.000Z,1014.49
2019-02-20T08:36:09.953Z,1014.54
2019-02-20T08:37:09.942Z,1014.52
2019-02-20T08:38:09.938Z,1014.56
2019-02-20T08:39:09.922Z,1014.56
2019-02-20T08:40:09.912Z,1014.57
2019-02-20T08:41:09.927Z,1014.61
2019-02-20T08:42:09.900Z,1014.63
2019-02-20T08:43:09.881Z,1014.61
2019-02-20T08:44:09.870Z,1014.65
2019-02-20T08:45:09.860Z,1014.69
2019-02-20T08:46:09.877Z,1014.63
2019-02-20T08:47:09.837Z,1014.65
2019-02-20T08:48:09.827Z,1014.69
2019-02-20T08:49:09.819Z,1014.67
2019-02-20T08:50:09.805Z,1014.67
2019-02-20T08:51:09.821Z,1014.68
2019-02-20T08:52:09.782Z,1014.72
2019-02-20T08:53:09.772Z,1014.73
2019-02-20T08:54:09.764Z,1014.78
2019-02-20T08:55:09.750Z,1014.84
2019-02-20T08:56:09.764Z,1014.87
2019-02-20T08:57:09.753Z,1014.82
2019-02-20T08:58:09.730Z,1014.79
2019-02-20T08:59:09.705Z,1014.84
2019-02-20T09:00:09.697Z,1014.86
2019-02-20T09:01:09.711Z,1014.81
2019-02-20T09:02:09.675Z,1014.85
2019-02-20T09:03:09.662Z,1014.90
2019-02-20T09:04:09.653Z,1014.88
2019-02-20T09:05:09.639Z,1014.92
2019-02-20T09:06:09.652Z,1014.91
2019-02-20T09:07:09.666Z,1015.01
2019-02-20T09:08:09.608Z,1015.00
2019-02-20T09:09:09.596Z,1015.02
2019-02-20T09:10:09.586Z,1015.07
2019-02-20T09:11:09.601Z,1014.99
2019-02-20T09:12:09.563Z,1015.08
2019-02-20T09:13:09.556Z,1015.04
2019-02-20T09:14:09.542Z,1015.06
2019-02-20T09:15:09.531Z,1015.08
2019-02-20T09:16:09.547Z,1015.13
2019-02-20T09:17:09.530Z,1015.14
2019-02-20T09:18:09.501Z,1015.16
2019-02-20T09:19:09.496Z,1015.14
2019-02-20T09:20:09.476Z,1015.17
2019-02-20T09:21:09.494Z,1015.17
2019-02-20T09:22:09.460Z,1015.08
2019-02-20T09:23:09.450Z,1015.17
2019-02-20T09:24:09.439Z,1015.15
2019-02-20T09:25:09.423Z,1015.16
2019-02-20T09:26:09.437Z,1015.14
2019-02-20T09:27:09.401Z,1015.17
2019-02-20T09:28:09.391Z,1015.23
2019-02-20T09:29:09.381Z,1015.14
2019-02-20T09:30:09.369Z,1015.20
2019-02-20T09:31:09.385Z,1015.20
2019-02-20T09:32:09.347Z,1015.20
2019-02-20T09:33:09.334Z,1015.24
2019-02-20T09:34:09.329Z,1015.20
2019-02-20T09:35:09.315Z,1015.28
2019-02-20T09:36:09.331Z,1015.29
2019-02-20T09:37:09.291Z,1015.29
2019-02-20T09:38:10.567Z,1015.26
2019-02-20T09:39:09.293Z,1015.27
2019-02-20T09:40:09.261Z,1015.28
2019-02-20T09:41:09.278Z,1015.25
2019-02-20T09:42:09.240Z,1015.33
2019-02-20T09:43:09.228Z,1015.26
2019-02-20T09:44:09.220Z,1015.30
2019-02-20T09:45:09.208Z,1015.27
2019-02-20T09:46:09.225Z,1015.29
2019-02-20T09:47:09.186Z,1015.32
2019-02-20T09:48:09.179Z,1015.34
2019-02-20T09:49:09.166Z,1015.34
2019-02-20T09:50:09.155Z,1015.27
2019-02-20T09:51:09.168Z,1015.32
2019-02-20T09:52:09.132Z,1015.30
2019-02-20T09:53:09.123Z,1015.36
2019-02-20T09:54:09.112Z,1015.39
2019-02-20T09:55:09.101Z,1015.39
2019-02-20T09:56:09.115Z,1015.39
2019-02-20T09:57:09.080Z,1015.40
2019-02-20T09:58:09.067Z,1015.40
2019-02-20T09:59:09.057Z,1015.42
2019-02-20T10:00:09.047Z,1015.43
2019-02-20T10:01:09.062Z,1015.41
2019-02-20T10:02:09.026Z,1015.41
2019-02-20T10:03:09.015Z,1015.47
2019-02-20T10:04:09.003Z,1015.41
2019-02-20T10:05:08.995Z,1015.49
2019-02-20T10:06:09.008Z,1015.46
2019-02-20T10:07:08.974Z,1015.42
2019-02-20T10:08:08.960Z,1015.49
2019-02-20T10:09:08.950Z,1015.42
2019-02-20T10:10:08.938Z,1015.41
2019-02-20T10:11:08.950Z,1015.40
2019-02-20T10:12:08.923Z,1015.43
2019-02-20T10:13:11.119Z,1015.47
2019-02-20T10:14:08.895Z,1015.40
2019-02-20T10:15:08.885Z,1015.48
2019-02-20T10:16:08.906Z,1015.44
2019-02-20T10:17:08.863Z,1015.37
2019-02-20T10:18:08.851Z,1015.35
2019-02-20T10:19:08.842Z,1015.34
2019-02-20T10:20:08.833Z,1015.34
2019-02-20T10:21:08.844Z,1015.33
2019-02-20T10:22:08.808Z,1015.37
2019-02-20T10:23:08.795Z,1015.48
2019-02-20T10:24:08.786Z,1015.44
2019-02-20T10:25:08.776Z,1015.59
2019-02-20T10:26:08.789Z,1015.55
2019-02-20T10:27:08.753Z,1015.58
2019-02-20T10:28:08.750Z,1015.57
2019-02-20T10:29:08.733Z,1015.57
2019-02-20T10:30:08.727Z,1015.61
2019-02-20T10:31:08.737Z,1015.65
2019-02-20T10:32:08.702Z,1015.68
2019-02-20T10:33:08.691Z,1015.62
2019-02-20T10:34:08.677Z,1015.71
2019-02-20T10:35:08.669Z,1015.72
2019-02-20T10:36:08.685Z,1015.76
2019-02-20T10:37:08.649Z,1015.66
2019-02-20T10:38:08.636Z,1015.61
2019-02-20T10:39:08.626Z,1015.65
2019-02-20T10:40:08.627Z,1015.64
2019-02-20T10:41:08.630Z,1015.62
2019-02-20T10:42:08.595Z,1015.67
2019-02-20T10:43:08.583Z,1015.60
2019-02-20T10:44:08.574Z,1015.65
2019-02-20T10:45:08.562Z,1015.67
2019-02-20T10:46:08.666Z,1015.60
2019-02-20T10:47:08.545Z,1015.55
2019-02-20T10:48:08.529Z,1015.58
2019-02-20T10:49:08.519Z,1015.50
2019-02-20T10:50:08.509Z,1015.54
2019-02-20T10:51:08.528Z,1015.55
2019-02-20T10:52:08.487Z,1015.53
2019-02-20T10:53:08.474Z,1015.53
2019-02-20T10:54:08.465Z,1015.56
2019-02-20T10:55:08.455Z,1015.58
2019-02-20T10:56:09.645Z,1015.56
2019-02-20T10:57:08.431Z,1015.60
2019-02-20T10:58:08.423Z,1015.63
2019-02-20T10:59:08.410Z,1015.61
2019-02-20T11:00:08.399Z,1015.61
2019-02-20T11:01:08.420Z,1015.60
2019-02-20T11:02:08.378Z,1015.61
2019-02-20T11:03:08.368Z,1015.68
2019-02-20T11:04:08.355Z,1015.64
2019-02-20T11:05:08.345Z,1015.68
2019-02-20T11:06:08.358Z,1015.65
2019-02-20T11:07:08.322Z,1015.61
2019-02-20T11:08:08.311Z,1015.61
2019-02-20T11:09:08.301Z,1015.59
2019-02-20T11:10:08.291Z,1015.59
2019-02-20T11:11:08.306Z,1015.58
2019-02-20T11:12:08.279Z,1015.61
2019-02-20T11:13:08.261Z,1015.53
2019-02-20T11:14:08.246Z,1015.58
2019-02-20T11:15:08.254Z,1015.54
2019-02-20T11:16:08.249Z,1015.56
2019-02-20T11:17:08.220Z,1015.59
2019-02-20T11:18:08.203Z,1015.53
2019-02-20T11:19:08.194Z,1015.53
2019-02-20T11:20:08.184Z,1015.58
2019-02-20T11:21:08.227Z,1015.58
2019-02-20T11:22:08.160Z,1015.63
2019-02-20T11:23:08.152Z,1015.56
2019-02-20T11:24:08.139Z,1015.56
2019-02-20T11:25:08.134Z,1015.52
2019-02-20T11:26:08.141Z,1015.50
2019-02-20T11:27:08.110Z,1015.60
2019-02-20T11:28:08.097Z,1015.54
2019-02-20T11:29:08.085Z,1015.53
2019-02-20T11:30:08.075Z,1015.51
2019-02-20T11:31:08.089Z,1015.45
2019-02-20T11:32:08.076Z,1015.51
2019-02-20T11:33:08.044Z,1015.48
2019-02-20T11:34:08.031Z,1015.52
2019-02-20T11:35:08.020Z,1015.50
2019-02-20T11:36:08.033Z,1015.46
2019-02-20T11:37:08.002Z,1015.52
2019-02-20T11:38:07.991Z,1015.52
2019-02-20T11:39:07.976Z,1015.47
2019-02-20T11:40:07.972Z,1015.48
2019-02-20T11:41:08.015Z,1015.47
2019-02-20T11:42:07.950Z,1015.49
2019-02-20T11:43:07.938Z,1015.44
2019-02-20T11:44:07.922Z,1015.46
2019-02-20T11:45:07.913Z,1015.43
2019-02-20T11:46:07.927Z,1015.45
2019-02-20T11:47:07.891Z,1015.46
2019-02-20T11:48:07.883Z,1015.45
2019-02-20T11:49:07.876Z,1015.47
2019-02-20T11:50:07.984Z,1015.46
2019-02-20T11:51:07.870Z,1015.44
2019-02-20T11:52:14.878Z,1015.47
2019-02-20T11:53:07.824Z,1015.51
2019-02-20T11:54:07.817Z,1015.44
2019-02-20T11:55:07.819Z,1015.50
2019-02-20T11:56:07.827Z,1015.53
2019-02-20T11:57:07.782Z,1015.47
2019-02-20T11:58:07.775Z,1015.46
2019-02-20T11:59:07.767Z,1015.45
2019-02-20T12:00:07.749Z,1015.48
2019-02-20T12:01:07.766Z,1015.46
2019-02-20T12:02:07.728Z,1015.47
2019-02-20T12:03:07.717Z,1015.38
2019-02-20T12:04:07.707Z,1015.42
2019-02-20T12:05:07.696Z,1015.40